Time;durP1;ratioP1;P1;durP2;ratioP2;P2;SDS_P1;SDS_P2;PMS_P1;PMS_P2;Temp;Humidity;BMP_temperature;BMP_pressure;BME280_temperature;BME280_humidity;BME280_pressure;Samples;Min_cycle;Max_cycle;Signal;HPM_P1;HPM_P2
2023/06/30 00:06:59;;;;;;;7.88;3.60;;;;;;;21.25;100.00;99089.53;31489462;28;20055;-81
2023/06/30 00:22:01;;;;;;;7.22;4.43;;;;;;;21.24;100.00;99076.97;31493713;28;20048;-80
2023/06/30 00:37:03;;;;;;;11.73;5.25;;;;;;;21.17;100.00;99060.94;31449499;28;20044;-82
2023/06/30 00:52:06;;;;;;;7.57;4.72;;;;;;;21.16;100.00;99045.66;31497498;28;20087;-82
2023/06/30 01:07:26;;;;;;;10.20;5.28;;;;;;;21.19;100.00;99058.44;31506580;28;20153;-82
2023/06/30 01:22:52;;;;;;;13.98;7.13;;;;;;;21.21;100.00;99061.44;31484313;28;20091;-81
2023/06/30 01:37:55;;;;;;;7.53;5.73;;;;;;;20.91;100.00;99061.44;31493852;28;20509;-82
2023/06/30 01:52:58;;;;;;;7.88;4.50;;;;;;;20.75;100.00;99032.72;31503763;28;20620;-82
2023/06/30 02:08:00;;;;;;;9.93;5.07;;;;;;;20.89;100.00;99030.09;31512071;28;20080;-82
2023/06/30 02:23:02;;;;;;;7.27;5.07;;;;;;;20.90;100.00;99021.31;31496255;28;20056;-82
2023/06/30 02:38:05;;;;;;;8.38;5.38;;;;;;;20.91;100.00;99025.56;31493122;28;20049;-83
2023/06/30 02:53:07;;;;;;;9.95;5.20;;;;;;;21.11;100.00;99046.44;31484229;28;20067;-81
2023/06/30 03:08:10;;;;;;;8.95;5.13;;;;;;;21.72;100.00;99050.63;31488312;28;20048;-82
2023/06/30 03:23:13;;;;;;;12.88;6.88;;;;;;;21.77;100.00;99082.94;31470777;28;20148;-81
2023/06/30 03:38:15;;;;;;;11.83;5.87;;;;;;;22.35;100.00;99096.34;31488800;28;20075;-81
2023/06/30 03:53:18;;;;;;;12.50;7.05;;;;;;;23.15;100.00;99125.84;31518996;28;23951;-83
2023/06/30 04:08:20;;;;;;;16.48;9.35;;;;;;;23.56;100.00;99127.44;31504973;28;20509;-82
2023/06/30 04:23:22;;;;;;;12.15;7.10;;;;;;;24.13;100.00;99146.00;31498063;28;20060;-81
2023/06/30 04:38:24;;;;;;;11.55;6.93;;;;;;;24.73;100.00;99164.69;31482212;28;20057;-82
2023/06/30 04:53:26;;;;;;;10.82;7.07;;;;;;;25.41;100.00;99197.97;31488356;28;20111;-81
2023/06/30 05:08:28;;;;;;;13.43;6.85;;;;;;;26.03;100.00;99219.38;31503941;28;20045;-82
2023/06/30 05:23:34;;;;;;;9.75;6.70;;;;;;;26.56;100.00;99249.56;31487524;28;20048;-81
2023/06/30 05:38:36;;;;;;;9.88;6.13;;;;;;;26.80;100.00;99249.13;31492792;28;20131;-81
2023/06/30 05:53:38;;;;;;;7.85;5.63;;;;;;;27.50;100.00;99256.38;31492808;28;20048;-83
2023/06/30 06:08:48;;;;;;;7.43;5.43;;;;;;;28.04;100.00;99246.72;31504094;28;20043;-81
2023/06/30 06:23:56;;;;;;;8.40;5.30;;;;;;;28.61;94.47;99249.00;31499381;28;20051;-83
2023/06/30 06:38:58;;;;;;;7.00;4.87;;;;;;;29.09;92.03;99243.41;31516866;28;20052;-82
2023/06/30 06:54:03;;;;;;;8.25;5.93;;;;;;;29.48;87.48;99248.25;31509039;28;20063;-82
2023/06/30 07:09:05;;;;;;;5.80;4.23;;;;;;;29.88;84.32;99252.94;31537543;28;20101;-79
2023/06/30 07:24:07;;;;;;;5.50;4.20;;;;;;;30.36;76.17;99236.63;31481674;28;20075;-76
2023/06/30 07:39:11;;;;;;;4.85;3.40;;;;;;;30.83;68.49;99232.00;31502957;28;20577;-80
2023/06/30 07:54:15;;;;;;;6.82;3.80;;;;;;;31.46;63.03;99245.31;31477038;28;20057;-83
2023/06/30 08:09:17;;;;;;;6.60;3.45;;;;;;;31.91;60.90;99235.44;31471143;28;20049;-80
2023/06/30 08:24:19;;;;;;;6.45;3.08;;;;;;;32.15;59.47;99245.66;31468525;28;20053;-84
2023/06/30 08:39:26;;;;;;;11.30;7.63;;;;;;;32.19;56.78;99229.13;31464421;28;20049;-84
2023/06/30 08:54:50;;;;;;;4.03;3.35;;;;;;;32.90;52.04;99241.22;31490845;28;20199;-85
2023/06/30 09:10:03;;;;;;;4.40;3.00;;;;;;;32.93;50.96;99240.06;31461240;28;20394;-80
2023/06/30 09:25:26;;;;;;;6.22;3.70;;;;;;;33.77;50.50;99233.22;31462949;28;20107;-81
2023/06/30 09:40:29;;;;;;;4.03;2.83;;;;;;;34.49;48.42;99225.31;31480899;28;20045;-78
2023/06/30 09:55:31;;;;;;;6.40;3.65;;;;;;;35.36;47.09;99222.38;31474213;28;20052;-81
2023/06/30 10:10:35;;;;;;;5.50;3.63;;;;;;;36.01;45.07;99208.53;31482948;28;20495;-82
2023/06/30 10:25:41;;;;;;;4.75;3.35;;;;;;;36.44;43.42;99217.38;31463944;28;20053;-79
2023/06/30 10:40:44;;;;;;;8.75;5.78;;;;;;;36.20;43.28;99197.66;31478368;28;20052;-78
2023/06/30 10:55:46;;;;;;;6.05;3.88;;;;;;;36.52;43.69;99192.41;31485239;28;20123;-79
2023/06/30 11:10:50;;;;;;;6.07;4.10;;;;;;;34.80;42.81;99177.28;31484812;28;20059;-79
2023/06/30 11:25:56;;;;;;;11.55;5.78;;;;;;;34.02;44.13;99188.47;31470965;28;20489;-80
2023/06/30 11:41:01;;;;;;;4.30;3.53;;;;;;;32.96;45.05;99165.78;31469188;28;20053;-84
2023/06/30 11:56:03;;;;;;;6.80;5.03;;;;;;;32.86;47.18;99146.88;31454114;28;20537;-76
2023/06/30 12:11:06;;;;;;;5.07;4.00;;;;;;;32.55;47.64;99157.28;31465004;28;20056;-80
2023/06/30 12:26:10;;;;;;;5.68;3.58;;;;;;;32.63;47.96;99152.22;31465230;28;20048;-78
2023/06/30 12:41:13;;;;;;;8.93;4.68;;;;;;;32.10;50.21;99136.50;31461275;28;20052;-78
2023/06/30 12:56:15;;;;;;;12.18;7.05;;;;;;;31.60;50.92;99127.88;31441396;28;20724;-77
2023/06/30 13:27:58;;;;;;;6.95;5.05;;;;;;;30.92;53.82;99124.09;31909233;22;20067;-83
2023/06/30 13:43:01;;;;;;;9.43;4.25;;;;;;;30.54;59.51;99224.09;31375557;28;20119;-87
2023/06/30 13:58:05;;;;;;;8.43;3.88;;;;;;;29.60;65.08;99203.78;31378737;28;20053;-84
2023/06/30 14:13:07;;;;;;;;;;;;;;;29.55;64.90;99173.25;31366440;28;20053;-88
2023/06/30 14:44:38;;;;;;;5.40;3.40;;;;;;;28.95;65.88;99119.28;31379889;28;20508;-84
2023/06/30 14:59:40;;;;;;;12.47;5.93;;;;;;;28.43;88.72;99188.78;31378639;28;20051;-87
2023/06/30 15:14:46;;;;;;;9.23;4.50;;;;;;;26.13;100.00;99125.81;31356003;28;20294;-83
2023/06/30 15:29:48;;;;;;;6.60;4.20;;;;;;;24.81;100.00;99031.53;31349842;28;20052;-81
2023/06/30 15:44:50;;;;;;;11.07;6.88;;;;;;;24.66;100.00;99020.31;31368660;28;20052;-81
2023/06/30 15:59:52;;;;;;;14.45;8.38;;;;;;;24.94;100.00;99075.88;31351276;28;20053;-81
2023/06/30 16:14:54;;;;;;;11.45;6.18;;;;;;;25.12;100.00;99086.06;31350842;28;20080;-81
2023/06/30 16:30:25;;;;;;;7.18;5.47;;;;;;;25.66;100.00;99122.59;31373332;28;20088;-78
2023/06/30 16:45:34;;;;;;;7.85;4.90;;;;;;;26.41;100.00;99090.91;31380396;28;20080;-81
2023/06/30 17:00:36;;;;;;;10.63;5.35;;;;;;;26.83;100.00;99083.00;31367467;28;20498;-81
2023/06/30 17:15:38;;;;;;;8.00;5.57;;;;;;;26.78;100.00;99098.59;31365713;28;20057;-81
2023/06/30 17:30:40;;;;;;;10.50;5.07;;;;;;;26.51;100.00;99114.09;31349010;28;20083;-81
2023/06/30 17:45:43;;;;;;;8.63;5.10;;;;;;;26.30;100.00;99121.84;31345353;28;20056;-80
2023/06/30 18:00:46;;;;;;;7.05;4.53;;;;;;;26.24;100.00;99112.88;31352924;28;20122;-78
2023/06/30 18:15:48;;;;;;;28.77;11.40;;;;;;;25.95;100.00;99126.09;31352744;28;20077;-78
2023/06/30 18:30:51;;;;;;;7.32;5.47;;;;;;;25.95;100.00;99115.72;31362842;28;20306;-80
2023/06/30 18:45:53;;;;;;;8.23;4.90;;;;;;;25.47;100.00;99101.34;31358526;28;20152;-79
2023/06/30 19:00:56;;;;;;;6.80;4.82;;;;;;;25.59;100.00;99126.78;31330177;28;20140;-79
2023/06/30 19:15:58;;;;;;;6.83;5.20;;;;;;;25.16;100.00;99157.91;31359491;28;20049;-81
2023/06/30 19:31:00;;;;;;;9.27;5.13;;;;;;;25.44;100.00;99152.41;31360723;28;20140;-79
2023/06/30 19:46:02;;;;;;;9.88;6.55;;;;;;;25.51;100.00;99172.47;31332736;28;20088;-78
2023/06/30 20:01:04;;;;;;;12.25;4.88;;;;;;;25.28;100.00;99184.13;31339189;28;20072;-85
2023/06/30 20:16:06;;;;;;;10.77;5.95;;;;;;;25.11;100.00;99181.75;31340868;28;20052;-88
2023/06/30 20:31:11;;;;;;;7.85;5.43;;;;;;;25.11;100.00;99198.41;31394025;28;20081;-84
2023/06/30 20:46:14;;;;;;;5.90;4.22;;;;;;;25.03;100.00;99202.41;31377713;28;20172;-88
2023/06/30 21:01:16;;;;;;;6.67;4.90;;;;;;;24.90;100.00;99188.53;31356204;28;20061;-80
2023/06/30 21:16:18;;;;;;;25.25;10.45;;;;;;;24.62;100.00;99184.34;31364855;28;20076;-79
2023/06/30 21:31:20;;;;;;;12.25;6.70;;;;;;;24.66;100.00;99184.00;31368102;28;20106;-80
2023/06/30 21:46:22;;;;;;;11.48;6.03;;;;;;;24.49;100.00;99173.28;31379770;28;20047;-80
2023/06/30 22:01:24;;;;;;;8.55;5.40;;;;;;;24.60;100.00;99197.25;31375518;28;20049;-80
2023/06/30 22:16:41;;;;;;;16.90;9.38;;;;;;;24.72;100.00;99190.94;31396070;28;20099;-80
2023/06/30 22:31:45;;;;;;;8.40;4.20;;;;;;;24.80;100.00;99197.31;31380542;28;20059;-79
2023/06/30 22:46:47;;;;;;;6.95;3.90;;;;;;;24.73;100.00;99203.53;31375149;28;20048;-80
2023/06/30 23:01:50;;;;;;;10.43;6.65;;;;;;;24.49;100.00;99209.34;31381713;28;20077;-79
2023/06/30 23:16:52;;;;;;;5.90;4.50;;;;;;;24.27;100.00;99218.13;31392901;28;20056;-81
2023/06/30 23:31:56;;;;;;;11.90;7.03;;;;;;;24.35;100.00;99225.25;31352868;28;20057;-78
2023/06/30 23:47:03;;;;;;;14.20;9.00;;;;;;;24.19;100.00;99229.06;31356091;28;20459;-80
